KIKV

Ankeny Regional Airport

Ankeny, Iowa, USA
METAR KIKV 241215Z AUTO 07009KT 8SM FEW070 SCT075 OVC110 M04/M05 A3008 RMK AO2
Observed Flight Rules
Feb-24 @ 12:15 UTC (9 minutes ago) Visual Flight Rules
Wind Visibility Clouds
70° at 9 knots 8 miles
  • Few at 7,000' AGL
  • Scattered at 7,500' AGL
  • Overcast at 11,000' AGL
Temperatures Readings
Current -4°C / 25°F
Dewpoint -5°C / 23°F
Humidity 93%
Altimeter 30.08" Hg
Pressure 1019 hPa
Elevation 275
METAR KIKV 241215Z AUTO 07009KT 8SM FEW070 SCT075 OVC110 M04/M05 A3008 RMK AO2
Observed Flight Rules
Feb-24 @ 12:15 UTC
(9 minutes ago)
VFR
Wind Visibility
70° at 9 knots 8 miles
Clouds
  • Few at 7,000' AGL
  • Scattered at 7,500' AGL
  • Overcast at 11,000' AGL
Temperature Dewpoint
-4°C / 25°F -5°C / 23°F
Humidity Altimeter Pressure
93% 30.08" Hg 1019 hPa